createdAt,value
2018-11-12T00:02:24.519Z,92.46
2018-11-12T00:04:53.001Z,89.01
2018-11-12T00:07:21.480Z,88.19
2018-11-12T00:09:49.984Z,91.57
2018-11-12T00:12:18.486Z,88.87
2018-11-12T00:14:46.968Z,91.01
2018-11-12T00:17:15.541Z,89.42
2018-11-12T00:19:44.004Z,86.77
2018-11-12T00:22:12.512Z,89.04
2018-11-12T00:24:40.983Z,91.13
2018-11-12T00:27:09.444Z,89.29
2018-11-12T00:29:38.031Z,90.02
2018-11-12T00:32:06.848Z,88.29
2018-11-12T00:34:35.348Z,88.06
2018-11-12T00:37:03.812Z,87.91
2018-11-12T00:39:32.311Z,89.36
2018-11-12T00:42:00.780Z,88.04
2018-11-12T00:44:29.548Z,86.35
2018-11-12T00:46:58.396Z,88.29
2018-11-12T00:49:26.872Z,88.92
2018-11-12T00:51:55.351Z,89.71
2018-11-12T00:54:23.820Z,89.46
2018-11-12T00:56:52.268Z,90.10
2018-11-12T00:59:20.751Z,89.04
2018-11-12T01:01:49.225Z,91.79
2018-11-12T01:04:17.837Z,90.79
2018-11-12T01:06:46.228Z,89.73
2018-11-12T01:09:15.276Z,87.47
2018-11-12T01:11:43.700Z,87.07
2018-11-12T01:14:12.240Z,88.66
2018-11-12T01:16:40.788Z,86.13
2018-11-12T01:19:09.276Z,88.59
2018-11-12T01:21:37.768Z,89.24
2018-11-12T01:24:06.628Z,87.30
2018-11-12T01:26:35.088Z,87.67
2018-11-12T01:29:03.581Z,87.47
2018-11-12T01:31:32.075Z,88.74
2018-11-12T01:34:00.556Z,86.44
2018-11-12T01:36:29.052Z,87.06
2018-11-12T01:38:57.519Z,87.47
2018-11-12T01:41:26.009Z,88.72
2018-11-12T01:43:54.469Z,88.94
2018-11-12T01:46:22.963Z,88.42
2018-11-12T01:48:51.415Z,87.35
2018-11-12T01:51:19.915Z,87.54
2018-11-12T01:53:48.423Z,87.82
2018-11-12T01:56:16.952Z,86.22
2018-11-12T01:58:45.524Z,88.26
2018-11-12T02:01:14.295Z,90.89
2018-11-12T02:03:42.757Z,88.62
2018-11-12T02:06:11.243Z,88.70
2018-11-12T02:08:39.755Z,88.05
2018-11-12T02:11:08.200Z,90.74
2018-11-12T02:13:36.956Z,87.25
2018-11-12T02:16:08.305Z,88.16
2018-11-12T02:18:36.795Z,87.53
2018-11-12T02:21:05.965Z,90.78
2018-11-12T02:23:34.491Z,91.22
2018-11-12T02:26:02.984Z,92.42
2018-11-12T02:28:31.483Z,90.66
2018-11-12T02:30:59.968Z,90.72
2018-11-12T02:33:28.455Z,93.10
2018-11-12T02:35:56.948Z,94.24
2018-11-12T02:38:25.971Z,91.53
2018-11-12T02:40:54.442Z,88.42
2018-11-12T02:43:23.024Z,85.08
2018-11-12T02:45:51.514Z,87.11
2018-11-12T02:48:19.999Z,84.02
2018-11-12T02:50:48.499Z,89.29
2018-11-12T02:53:17.075Z,91.29
2018-11-12T02:55:45.562Z,91.25
2018-11-12T02:58:14.026Z,87.04
2018-11-12T03:00:42.541Z,87.79
2018-11-12T03:03:11.039Z,88.19
2018-11-12T03:05:39.541Z,92.15
2018-11-12T03:08:07.980Z,89.69
2018-11-12T03:10:36.493Z,85.60
2018-11-12T03:13:05.386Z,85.28
2018-11-12T03:15:33.883Z,88.12
2018-11-12T03:18:02.337Z,91.29
2018-11-12T03:20:30.943Z,88.30
2018-11-12T03:22:59.461Z,88.69
2018-11-12T03:25:27.985Z,89.81
2018-11-12T03:27:56.540Z,90.06
2018-11-12T03:30:25.025Z,88.99
2018-11-12T03:32:54.075Z,87.56
2018-11-12T03:35:22.595Z,89.44
2018-11-12T03:37:51.659Z,87.72
2018-11-12T03:40:22.622Z,86.41
2018-11-12T03:42:51.592Z,88.28
2018-11-12T03:45:24.802Z,87.95
2018-11-12T03:47:53.475Z,87.71
2018-11-12T03:50:23.460Z,91.35
2018-11-12T03:52:52.060Z,88.55
2018-11-12T03:55:21.791Z,87.26
2018-11-12T03:57:50.262Z,87.39
2018-11-12T04:00:21.229Z,90.96
2018-11-12T04:02:49.683Z,92.97
2018-11-12T04:05:18.152Z,87.30
2018-11-12T04:07:46.675Z,88.31
2018-11-12T04:10:17.943Z,90.66
2018-11-12T04:12:46.462Z,87.46
2018-11-12T04:15:16.553Z,87.90
2018-11-12T04:17:45.040Z,88.10
2018-11-12T04:20:14.920Z,88.71
2018-11-12T04:22:50.797Z,89.97
2018-11-12T04:25:19.729Z,89.97
2018-11-12T04:27:48.211Z,91.87
2018-11-12T04:30:16.837Z,93.53
2018-11-12T04:32:46.647Z,96.19
2018-11-12T04:35:15.123Z,94.23
2018-11-12T04:37:43.659Z,97.57
2018-11-12T04:40:14.751Z,96.03
2018-11-12T04:42:43.576Z,97.91
2018-11-12T04:45:13.810Z,96.72
2018-11-12T04:47:43.280Z,97.87
2018-11-12T04:50:14.207Z,92.35
2018-11-12T04:52:43.019Z,93.72
2018-11-12T04:55:15.995Z,92.63
2018-11-12T04:57:44.964Z,89.40
2018-11-12T05:00:18.008Z,92.71
2018-11-12T05:02:46.476Z,87.56
2018-11-12T05:05:16.283Z,94.65
2018-11-12T05:07:45.318Z,79.84
2018-11-12T05:10:16.352Z,89.78
2018-11-12T05:13:47.757Z,84.56
2018-11-12T05:16:16.255Z,86.85
2018-11-12T05:18:44.724Z,85.69
2018-11-12T05:21:13.201Z,87.98
2018-11-12T05:23:41.653Z,82.15
2018-11-12T05:26:10.098Z,84.03
2018-11-12T05:28:38.634Z,86.42
2018-11-12T05:31:07.119Z,84.09
2018-11-12T05:33:35.662Z,76.65
2018-11-12T05:36:04.164Z,77.74
2018-11-12T05:38:32.663Z,80.81
2018-11-12T05:41:01.162Z,83.13
2018-11-12T05:43:29.604Z,84.66
2018-11-12T05:45:58.104Z,87.10
2018-11-12T05:48:26.828Z,85.85
2018-11-12T05:50:55.297Z,83.76
2018-11-12T05:53:23.767Z,88.68
2018-11-12T05:55:52.301Z,88.08
2018-11-12T05:58:20.784Z,88.31
2018-11-12T06:00:49.319Z,87.72
2018-11-12T06:03:17.788Z,89.32
2018-11-12T06:05:46.284Z,86.29
2018-11-12T06:08:14.739Z,92.63
2018-11-12T06:10:43.284Z,90.94
2018-11-12T06:13:11.762Z,92.50
2018-11-12T06:15:40.236Z,89.21
2018-11-12T06:18:08.745Z,89.28
2018-11-12T06:20:37.243Z,87.08
2018-11-12T06:23:06.071Z,88.76
2018-11-12T06:25:35.698Z,87.06
2018-11-12T06:28:04.408Z,88.14
2018-11-12T06:30:34.307Z,87.03
2018-11-12T06:33:02.885Z,86.58
2018-11-12T06:35:31.426Z,85.84
2018-11-12T06:38:00.140Z,84.31
2018-11-12T06:40:29.198Z,84.42
2018-11-12T06:42:57.735Z,86.08
2018-11-12T06:45:28.598Z,87.26
2018-11-12T06:47:58.121Z,90.08
2018-11-12T06:50:27.912Z,86.35
2018-11-12T06:52:56.838Z,88.29
2018-11-12T06:55:25.330Z,87.66
2018-11-12T06:57:54.952Z,86.52
2018-11-12T07:00:30.552Z,84.10
2018-11-12T07:02:59.039Z,82.78
2018-11-12T07:05:27.974Z,83.44
2018-11-12T07:07:56.445Z,87.44
2018-11-12T07:10:26.239Z,85.61
2018-11-12T07:12:55.409Z,83.47
2018-11-12T07:15:25.452Z,82.47
2018-11-12T07:17:53.980Z,87.51
2018-11-12T07:20:24.000Z,87.78
2018-11-12T07:22:52.933Z,84.49
2018-11-12T07:25:23.430Z,88.62
2018-11-12T07:27:51.867Z,86.55
2018-11-12T07:30:23.206Z,85.63
2018-11-12T07:32:52.724Z,83.47
2018-11-12T07:35:21.717Z,87.33
2018-11-12T07:37:51.565Z,84.05
2018-11-12T07:40:20.567Z,85.80
2018-11-12T07:42:49.108Z,85.49
2018-11-12T07:45:18.930Z,86.27
2018-11-12T07:47:48.436Z,86.62
2018-11-12T07:50:20.297Z,85.29
2018-11-12T07:52:48.792Z,84.68
2018-11-12T07:55:19.292Z,86.37
2018-11-12T07:57:49.300Z,85.21
2018-11-12T08:00:22.104Z,87.60
2018-11-12T08:02:51.841Z,87.25
2018-11-12T08:05:20.340Z,86.60
2018-11-12T08:07:49.056Z,86.25
2018-11-12T08:10:18.735Z,87.62
2018-11-12T08:12:47.955Z,87.38
2018-11-12T08:15:18.016Z,87.95
2018-11-12T08:17:46.716Z,86.31
2018-11-12T08:20:18.632Z,86.90
2018-11-12T08:22:48.485Z,89.77
2018-11-12T08:25:16.970Z,85.68
2018-11-12T08:27:45.907Z,86.30
2018-11-12T08:30:23.545Z,86.04
2018-11-12T08:32:53.814Z,87.83
2018-11-12T08:35:22.320Z,85.12
2018-11-12T08:37:51.536Z,84.70
2018-11-12T08:40:22.229Z,84.90
2018-11-12T08:42:50.714Z,85.67
2018-11-12T08:45:19.204Z,84.10
2018-11-12T08:47:49.342Z,83.87
2018-11-12T08:50:19.254Z,86.95
2018-11-12T08:52:48.878Z,84.97
2018-11-12T08:55:19.713Z,85.29
2018-11-12T08:57:49.667Z,83.71
2018-11-12T09:00:19.236Z,84.49
2018-11-12T09:02:48.099Z,83.08
2018-11-12T09:05:17.634Z,81.75
2018-11-12T09:07:47.679Z,82.20
2018-11-12T09:13:48.889Z,84.98
2018-11-12T09:16:17.480Z,86.16
2018-11-12T09:18:46.088Z,87.60
2018-11-12T09:21:14.795Z,84.27
2018-11-12T09:23:43.296Z,83.41
2018-11-12T09:26:11.783Z,86.70
2018-11-12T09:28:40.295Z,85.17
2018-11-12T09:31:09.887Z,86.71
2018-11-12T09:33:37.371Z,86.04
2018-11-12T09:36:05.962Z,86.67
2018-11-12T09:38:34.505Z,84.54
2018-11-12T09:41:02.972Z,86.00
2018-11-12T09:43:31.436Z,83.66
2018-11-12T09:46:00.010Z,82.50
2018-11-12T09:48:28.428Z,85.95
2018-11-12T09:50:56.964Z,84.46
2018-11-12T09:53:25.706Z,86.40
2018-11-12T09:55:54.183Z,83.73
2018-11-12T09:58:22.673Z,82.95
2018-11-12T10:00:51.446Z,81.22
2018-11-12T10:03:27.761Z,81.71
2018-11-12T10:05:58.483Z,83.18
2018-11-12T10:08:29.190Z,81.75
2018-11-12T10:10:59.196Z,83.71
2018-11-12T10:13:28.178Z,82.68
2018-11-12T10:15:58.023Z,84.64
2018-11-12T10:18:24.120Z,83.47
2018-11-12T10:20:52.582Z,84.23
2018-11-12T10:23:21.835Z,83.35
2018-11-12T10:25:50.539Z,82.46
2018-11-12T10:28:20.439Z,84.63
2018-11-12T10:30:49.361Z,83.26
2018-11-12T10:33:18.767Z,83.25
2018-11-12T10:35:47.535Z,81.74
2018-11-12T10:38:16.969Z,84.78
2018-11-12T10:40:45.590Z,81.85
2018-11-12T10:43:14.035Z,83.23
2018-11-12T10:45:42.528Z,82.04
2018-11-12T10:48:11.311Z,82.12
2018-11-12T10:50:40.147Z,83.52
2018-11-12T10:53:08.667Z,82.77
2018-11-12T10:55:37.290Z,82.63
2018-11-12T10:58:06.249Z,82.80
2018-11-12T11:00:40.377Z,82.43
2018-11-12T11:03:50.293Z,82.15
2018-11-12T11:06:18.807Z,80.49
2018-11-12T11:08:47.275Z,82.41
2018-11-12T11:11:15.795Z,82.94
2018-11-12T11:13:44.331Z,81.88
2018-11-12T11:16:12.816Z,82.92
2018-11-12T11:18:41.321Z,83.26
2018-11-12T11:21:09.807Z,88.06
2018-11-12T11:23:38.245Z,86.31
2018-11-12T11:26:06.776Z,87.62
2018-11-12T11:28:35.235Z,86.94
2018-11-12T11:31:03.818Z,90.78
2018-11-12T11:33:32.528Z,90.34
2018-11-12T11:36:00.997Z,83.70
2018-11-12T11:38:29.735Z,85.55
2018-11-12T11:40:58.451Z,84.05
2018-11-12T11:43:26.952Z,83.75
2018-11-12T11:45:55.951Z,86.71
2018-11-12T11:48:24.784Z,88.42
2018-11-12T11:50:53.353Z,85.14
2018-11-12T11:53:21.745Z,90.61
2018-11-12T11:55:50.541Z,90.04
2018-11-12T11:58:19.047Z,85.72
2018-11-12T12:00:47.902Z,85.71
2018-11-12T12:03:16.389Z,84.86
2018-11-12T12:05:45.188Z,76.79
2018-11-12T12:08:13.693Z,79.30
2018-11-12T12:11:45.452Z,86.86
2018-11-12T12:14:13.897Z,87.66
2018-11-12T12:16:42.439Z,84.43
2018-11-12T12:19:10.958Z,83.18
2018-11-12T12:21:40.471Z,86.71
2018-11-12T12:24:08.951Z,86.52
2018-11-12T12:26:37.642Z,84.21
2018-11-12T12:29:06.539Z,87.04
2018-11-12T12:31:35.363Z,83.68
2018-11-12T12:34:04.094Z,85.29
2018-11-12T12:36:32.771Z,80.04
2018-11-12T12:39:01.295Z,78.28
2018-11-12T12:41:29.751Z,80.69
2018-11-12T12:43:58.204Z,80.37
2018-11-12T12:46:26.716Z,79.15
2018-11-12T12:48:55.230Z,79.67
2018-11-12T12:51:23.725Z,81.73
2018-11-12T12:53:52.477Z,80.22
2018-11-12T12:56:20.934Z,80.00
2018-11-12T12:58:49.842Z,79.68
2018-11-12T13:01:18.308Z,78.26
2018-11-12T13:03:46.891Z,79.26
2018-11-12T13:06:15.416Z,79.42
2018-11-12T13:08:44.104Z,80.77
2018-11-12T13:11:12.644Z,80.96
2018-11-12T13:13:41.144Z,82.43
2018-11-12T13:16:10.063Z,79.75
2018-11-12T13:18:38.535Z,80.12
2018-11-12T13:21:07.150Z,78.98
2018-11-12T13:23:36.428Z,79.89
2018-11-12T13:26:04.955Z,81.60
2018-11-12T13:28:33.471Z,80.62
2018-11-12T13:31:01.964Z,77.85
2018-11-12T13:33:30.533Z,78.80
2018-11-12T13:35:59.101Z,78.54
2018-11-12T13:38:27.635Z,78.78
2018-11-12T13:40:56.115Z,77.09
2018-11-12T13:43:24.583Z,77.44
2018-11-12T13:45:53.070Z,79.64
2018-11-12T13:48:21.607Z,79.08
2018-11-12T13:50:50.062Z,80.25
2018-11-12T13:53:18.565Z,81.53
2018-11-12T13:55:47.045Z,79.53
2018-11-12T13:58:15.511Z,78.97
2018-11-12T14:00:44.009Z,79.86
2018-11-12T14:03:12.484Z,81.20
2018-11-12T14:05:41.228Z,81.65
2018-11-12T14:08:09.903Z,81.11
2018-11-12T14:10:38.383Z,78.36
2018-11-12T14:13:06.863Z,78.17
2018-11-12T14:15:41.953Z,79.88
2018-11-12T14:18:10.491Z,80.96
2018-11-12T14:20:39.153Z,81.50
2018-11-12T14:23:07.469Z,78.50
2018-11-12T14:25:35.975Z,80.65
2018-11-12T14:28:04.509Z,81.68
2018-11-12T14:30:33.013Z,80.27
2018-11-12T14:33:01.520Z,82.00
2018-11-12T14:35:30.445Z,80.83
2018-11-12T14:37:59.203Z,80.72
2018-11-12T14:40:27.692Z,80.85
2018-11-12T14:42:56.240Z,79.89
2018-11-12T14:45:24.841Z,79.27
2018-11-12T14:47:53.271Z,79.93
2018-11-12T14:50:22.113Z,81.79
2018-11-12T14:52:50.619Z,82.04
2018-11-12T14:55:19.452Z,82.36
2018-11-12T14:57:47.944Z,80.33
2018-11-12T15:00:19.079Z,81.46
2018-11-12T15:02:48.836Z,80.23
2018-11-12T15:05:18.560Z,79.28
2018-11-12T15:07:47.955Z,82.13
2018-11-12T15:10:16.483Z,82.50
2018-11-12T15:12:45.863Z,82.67
2018-11-12T15:15:14.906Z,84.06
2018-11-12T15:17:43.751Z,82.91
2018-11-12T15:20:15.145Z,80.55
2018-11-12T15:22:44.112Z,80.26
2018-11-12T15:25:14.999Z,83.35
2018-11-12T15:27:43.950Z,79.69
2018-11-12T15:30:14.997Z,82.40
2018-11-12T15:32:44.312Z,83.13
2018-11-12T15:35:13.561Z,83.01
2018-11-12T15:37:42.899Z,80.66
2018-11-12T15:40:12.379Z,79.71
2018-11-12T15:42:44.069Z,82.46
2018-11-12T15:45:18.174Z,83.27
2018-11-12T15:47:48.591Z,81.16
2018-11-12T15:50:29.506Z,83.50
2018-11-12T15:53:01.124Z,85.37
2018-11-12T15:55:31.936Z,84.84
2018-11-12T15:58:03.591Z,86.86
2018-11-12T16:00:33.837Z,84.91
2018-11-12T16:03:05.254Z,82.88
2018-11-12T16:05:35.776Z,82.32
2018-11-12T16:08:04.513Z,84.41
2018-11-12T16:10:33.038Z,83.17
2018-11-12T16:13:01.755Z,86.29
2018-11-12T16:15:30.447Z,87.33
2018-11-12T16:17:59.224Z,87.54
2018-11-12T16:20:29.347Z,86.60
2018-11-12T16:22:58.937Z,86.84
2018-11-12T16:25:28.305Z,85.38
2018-11-12T16:27:57.219Z,87.40
2018-11-12T16:30:25.726Z,88.52
2018-11-12T16:32:54.397Z,87.03
2018-11-12T16:35:24.190Z,85.55
2018-11-12T16:37:54.044Z,86.72
2018-11-12T16:40:22.571Z,87.60
2018-11-12T16:42:51.512Z,87.23
2018-11-12T16:45:19.979Z,86.29
2018-11-12T16:47:48.760Z,86.43
2018-11-12T16:50:17.786Z,84.79
2018-11-12T16:52:46.580Z,83.66
2018-11-12T16:55:17.451Z,85.13
2018-11-12T16:57:46.104Z,86.07
2018-11-12T17:01:17.573Z,86.43
2018-11-12T17:03:46.222Z,85.69
2018-11-12T17:06:14.707Z,86.28
2018-11-12T17:08:43.193Z,85.35
2018-11-12T17:11:11.723Z,87.76
2018-11-12T17:13:40.232Z,88.90
2018-11-12T17:16:08.699Z,85.38
2018-11-12T17:18:37.205Z,87.27
2018-11-12T17:21:05.997Z,85.89
2018-11-12T17:23:34.548Z,86.83
2018-11-12T17:26:03.370Z,87.63
2018-11-12T17:28:31.935Z,85.82
2018-11-12T17:31:00.566Z,85.70
2018-11-12T17:33:29.035Z,87.73
2018-11-12T17:35:57.521Z,87.32
2018-11-12T17:38:26.030Z,86.32
2018-11-12T17:40:54.754Z,87.28
2018-11-12T17:43:23.555Z,88.48
2018-11-12T17:45:51.996Z,85.72
2018-11-12T17:48:20.540Z,83.29
2018-11-12T17:50:49.008Z,84.91
2018-11-12T17:53:17.723Z,85.54
2018-11-12T17:55:46.396Z,85.72
2018-11-12T17:58:14.928Z,85.17
2018-11-12T18:00:43.646Z,84.98
2018-11-12T18:03:12.139Z,87.46
2018-11-12T18:05:40.612Z,85.33
2018-11-12T18:08:09.263Z,83.98
2018-11-12T18:10:37.556Z,85.01
2018-11-12T18:13:06.936Z,85.58
2018-11-12T18:15:35.452Z,84.29
2018-11-12T18:18:03.921Z,84.86
2018-11-12T18:20:32.676Z,84.69
2018-11-12T18:23:01.232Z,84.99
2018-11-12T18:25:29.880Z,86.84
2018-11-12T18:27:58.388Z,87.02
2018-11-12T18:30:28.601Z,83.06
2018-11-12T18:32:58.243Z,85.89
2018-11-12T18:35:26.981Z,85.48
2018-11-12T18:37:55.740Z,84.33
2018-11-12T18:40:25.632Z,86.39
2018-11-12T18:42:54.172Z,84.32
2018-11-12T18:45:23.892Z,83.81
2018-11-12T18:47:53.012Z,83.52
2018-11-12T18:50:23.463Z,83.19
2018-11-12T18:52:52.234Z,83.23
2018-11-12T18:55:20.687Z,85.77
2018-11-12T18:57:49.802Z,86.02
2018-11-12T19:00:19.637Z,88.03
2018-11-12T19:02:48.523Z,87.92
2018-11-12T19:05:18.938Z,87.52
2018-11-12T19:07:49.214Z,86.50
2018-11-12T19:10:19.222Z,84.38
2018-11-12T19:12:48.283Z,86.22
2018-11-12T19:15:19.323Z,84.72
2018-11-12T19:17:54.089Z,84.39
2018-11-12T19:20:22.702Z,84.60
2018-11-12T19:22:51.254Z,87.80
2018-11-12T19:25:19.749Z,87.53
2018-11-12T19:27:48.223Z,85.19
2018-11-12T19:30:21.383Z,86.25
2018-11-12T19:32:49.882Z,86.84
2018-11-12T19:35:20.140Z,87.27
2018-11-12T19:37:48.642Z,86.87
2018-11-12T19:40:18.703Z,86.33
2018-11-12T19:42:48.376Z,88.10
2018-11-12T19:45:17.040Z,90.32
2018-11-12T19:47:46.495Z,90.97
2018-11-12T19:50:17.493Z,90.36
2018-11-12T19:52:47.103Z,89.75
2018-11-12T19:55:15.828Z,89.96
2018-11-12T19:57:45.040Z,91.50
2018-11-12T20:00:15.011Z,90.70
2018-11-12T20:02:44.613Z,91.26
2018-11-12T20:05:13.131Z,92.24
2018-11-12T20:07:42.298Z,91.59
2018-11-12T20:10:12.874Z,92.34
2018-11-12T20:12:41.849Z,92.91
2018-11-12T20:15:11.763Z,88.57
2018-11-12T20:17:41.058Z,89.51
2018-11-12T20:20:14.282Z,86.70
2018-11-12T20:22:43.309Z,86.59
2018-11-12T20:25:13.327Z,85.79
2018-11-12T20:27:42.264Z,87.89
2018-11-12T20:30:15.883Z,86.96
2018-11-12T20:32:44.862Z,90.91
2018-11-12T20:35:13.323Z,88.78
2018-11-12T20:37:41.894Z,87.75
2018-11-12T20:40:11.455Z,87.75
2018-11-12T20:42:40.466Z,87.20
2018-11-12T20:45:10.416Z,86.87
2018-11-12T20:47:39.647Z,87.38
2018-11-12T20:50:09.412Z,87.93
2018-11-12T20:52:38.372Z,88.58
2018-11-12T20:55:08.620Z,88.36
2018-11-12T20:57:37.771Z,86.93
2018-11-12T21:00:10.414Z,85.68
2018-11-12T21:02:39.744Z,87.77
2018-11-12T21:05:09.191Z,92.82
2018-11-12T21:07:38.181Z,88.53
2018-11-12T21:10:07.869Z,85.67
2018-11-12T21:12:36.488Z,84.87
2018-11-12T21:15:05.581Z,85.27
2018-11-12T21:17:34.278Z,83.98
2018-11-12T21:20:02.793Z,85.68
2018-11-12T21:22:31.296Z,85.09
2018-11-12T21:25:00.546Z,88.28
2018-11-12T21:27:29.197Z,91.16
2018-11-12T21:29:58.051Z,93.56
2018-11-12T21:32:26.928Z,93.79
2018-11-12T21:34:55.440Z,94.03
2018-11-12T21:37:23.956Z,93.24
2018-11-12T21:39:52.442Z,92.93
2018-11-12T21:42:21.310Z,89.44
2018-11-12T21:44:49.772Z,87.25
2018-11-12T21:47:18.311Z,88.27
2018-11-12T21:49:46.820Z,91.07
2018-11-12T21:52:15.277Z,87.91
2018-11-12T21:54:43.891Z,90.26
2018-11-12T21:57:12.406Z,87.14
2018-11-12T21:59:40.931Z,87.67
2018-11-12T22:02:09.748Z,88.83
2018-11-12T22:04:38.272Z,87.99
2018-11-12T22:07:07.254Z,87.46
2018-11-12T22:09:35.764Z,88.55
2018-11-12T22:12:04.499Z,91.19
2018-11-12T22:14:33.715Z,91.59
2018-11-12T22:17:02.522Z,88.31
2018-11-12T22:19:31.086Z,87.38
2018-11-12T22:21:59.496Z,89.69
2018-11-12T22:24:27.976Z,85.38
2018-11-12T22:26:56.879Z,84.83
2018-11-12T22:29:25.412Z,82.57
2018-11-12T22:31:53.993Z,85.49
2018-11-12T22:34:22.468Z,86.24
2018-11-12T22:36:50.875Z,85.24
2018-11-12T22:39:19.396Z,84.82
2018-11-12T22:41:47.879Z,85.11
2018-11-12T22:44:16.750Z,84.98
2018-11-12T22:46:45.227Z,84.30
2018-11-12T22:49:13.756Z,82.34
2018-11-12T22:51:42.271Z,84.18
2018-11-12T22:54:10.826Z,86.40
2018-11-12T22:56:39.243Z,83.95
2018-11-12T22:59:07.756Z,80.34
2018-11-12T23:01:36.211Z,81.68
2018-11-12T23:04:04.744Z,81.63
2018-11-12T23:06:33.259Z,85.53
2018-11-12T23:09:01.854Z,84.58
2018-11-12T23:11:30.392Z,82.89
2018-11-12T23:13:58.854Z,83.40
2018-11-12T23:16:27.648Z,85.20
2018-11-12T23:18:56.202Z,85.61
2018-11-12T23:21:24.742Z,85.16
2018-11-12T23:23:53.557Z,85.24
2018-11-12T23:26:22.075Z,83.62
2018-11-12T23:28:50.582Z,84.29
2018-11-12T23:31:19.113Z,85.21
2018-11-12T23:33:47.843Z,83.03
2018-11-12T23:36:16.339Z,84.55
2018-11-12T23:38:44.903Z,82.15
2018-11-12T23:41:13.383Z,84.09
2018-11-12T23:43:41.909Z,84.70
2018-11-12T23:46:10.347Z,82.86
2018-11-12T23:48:38.852Z,83.88
2018-11-12T23:51:08.034Z,83.37
2018-11-12T23:53:36.502Z,83.90
2018-11-12T23:56:04.983Z,84.09
2018-11-12T23:58:33.641Z,86.32
